Billingshurst, United Kingdom
Current Conditions -  °F | °C
As of 10:50 AM on Friday 19 Dec 2014 (Local Time) from EGKK Reporting Station
Scattered Clouds Scattered Clouds  
Wind Chill: 42°   Ceiling: Unl
Heat Index: 48°   Visibility: 6mi
Dew Point: 39°   Wind: 18mph
Humidity: 71%   Direction: 300°WNW
Pressure: 29.97"   Gusts: NA
Location:  51.02°N, 0.45°W
Report Text: EGKK 191050Z 30016KT 9999 SCT033 09/04 Q1015
Loading
Personal Weather Stations






























Interactive Weather Map New forecast layout! Learn more

10-Day Weather Forecast

Advertisements
Track Severe Weather on mobile